createdAt,value
2022-08-16T00:01:00.030Z,23.22
2022-08-16T00:04:05.475Z,23.03
2022-08-16T00:07:09.631Z,22.92
2022-08-16T00:10:20.107Z,22.89
2022-08-16T00:13:25.262Z,22.98
2022-08-16T00:17:15.730Z,23.00
2022-08-16T00:19:58.686Z,22.95
2022-08-16T00:23:02.396Z,22.58
2022-08-16T00:26:35.576Z,22.38
2022-08-16T00:29:34.942Z,22.41
2022-08-16T00:32:41.752Z,22.63
2022-08-16T00:35:46.545Z,22.57
2022-08-16T00:38:56.304Z,22.53
2022-08-16T00:42:02.053Z,22.42
2022-08-16T00:45:13.950Z,22.43
2022-08-16T00:48:31.016Z,22.50
2022-08-16T00:51:38.629Z,22.22
2022-08-16T00:54:44.274Z,22.29
2022-08-16T00:57:59.867Z,22.30
2022-08-16T01:01:08.768Z,22.39
2022-08-16T01:04:28.984Z,22.34
2022-08-16T01:07:52.209Z,22.00
2022-08-16T01:11:02.437Z,21.87
2022-08-16T01:14:14.649Z,21.92
2022-08-16T01:17:25.417Z,21.82
2022-08-16T01:20:33.981Z,21.79
2022-08-16T01:24:00.715Z,21.98
2022-08-16T01:27:11.384Z,21.66
2022-08-16T01:30:26.117Z,21.67
2022-08-16T01:33:33.439Z,21.76
2022-08-16T01:36:42.720Z,21.60
2022-08-16T01:39:48.552Z,21.67
2022-08-16T01:42:54.012Z,21.88
2022-08-16T01:46:37.885Z,21.90
2022-08-16T01:49:35.959Z,21.96
2022-08-16T01:52:51.878Z,22.09
2022-08-16T01:56:24.486Z,21.94
2022-08-16T01:59:33.553Z,22.04
2022-08-16T02:02:59.214Z,21.76
2022-08-16T02:06:03.506Z,21.59
2022-08-16T02:09:14.855Z,21.62
2022-08-16T02:12:45.839Z,21.71
2022-08-16T02:15:49.502Z,21.69
2022-08-16T02:18:59.394Z,21.50
2022-08-16T02:22:08.248Z,21.41
2022-08-16T02:25:17.717Z,21.52
2022-08-16T02:28:27.847Z,21.61
2022-08-16T02:32:04.162Z,21.54
2022-08-16T02:35:01.780Z,21.52
2022-08-16T02:38:08.949Z,21.67
2022-08-16T02:41:16.106Z,21.72
2022-08-16T02:44:27.067Z,21.66
2022-08-16T02:47:33.871Z,21.57
2022-08-16T02:51:10.089Z,21.46
2022-08-16T02:54:19.782Z,21.41
2022-08-16T02:57:28.051Z,21.14
2022-08-16T03:00:35.298Z,21.03
2022-08-16T03:04:39.566Z,21.16
2022-08-16T03:07:08.729Z,21.04
2022-08-16T03:10:21.528Z,21.05
2022-08-16T03:13:40.146Z,21.15
2022-08-16T03:16:59.876Z,20.79
2022-08-16T03:20:15.300Z,20.82
2022-08-16T03:23:24.193Z,20.99
2022-08-16T03:26:30.057Z,20.87
2022-08-16T03:29:37.038Z,20.93
2022-08-16T03:32:47.418Z,20.86
2022-08-16T03:35:56.908Z,20.77
2022-08-16T03:39:06.330Z,20.46
2022-08-16T03:42:23.214Z,20.47
2022-08-16T03:45:31.257Z,20.53
2022-08-16T03:48:40.388Z,20.49
2022-08-16T03:51:52.611Z,20.02
2022-08-16T03:55:01.252Z,19.83
2022-08-16T03:58:06.717Z,20.14
2022-08-16T04:01:11.189Z,20.30
2022-08-16T04:04:32.487Z,20.36
2022-08-16T04:07:37.359Z,20.24
2022-08-16T04:10:43.411Z,20.48
2022-08-16T04:14:00.563Z,20.48
2022-08-16T04:17:17.826Z,20.61
2022-08-16T04:20:29.560Z,20.63
2022-08-16T04:23:42.246Z,20.64
2022-08-16T04:26:46.765Z,20.59
2022-08-16T04:30:03.160Z,20.39
2022-08-16T04:33:09.237Z,20.50
2022-08-16T04:36:20.560Z,20.30
2022-08-16T04:39:46.052Z,20.62
2022-08-16T04:42:51.172Z,20.98
2022-08-16T04:46:00.129Z,21.15
2022-08-16T04:49:08.591Z,21.38
2022-08-16T04:52:32.744Z,21.64
2022-08-16T04:55:40.389Z,21.88
2022-08-16T04:58:46.594Z,21.95
2022-08-16T05:02:42.334Z,22.28
2022-08-16T05:05:38.575Z,22.55
2022-08-16T05:08:56.376Z,23.16
2022-08-16T05:12:00.944Z,23.14
2022-08-16T05:15:09.301Z,23.32
2022-08-16T05:18:18.292Z,23.64
2022-08-16T05:21:38.588Z,23.62
2022-08-16T05:24:47.630Z,23.53
2022-08-16T05:27:51.891Z,23.82
2022-08-16T05:30:59.085Z,23.87
2022-08-16T05:34:19.736Z,24.11
2022-08-16T05:37:25.962Z,24.27
2022-08-16T05:40:35.856Z,24.76
2022-08-16T05:43:46.532Z,25.10
2022-08-16T05:46:56.503Z,25.03
2022-08-16T05:50:03.958Z,25.07
2022-08-16T05:53:11.139Z,25.27
2022-08-16T05:56:28.868Z,25.79
2022-08-16T05:59:33.792Z,25.89
2022-08-16T06:02:39.202Z,26.01
2022-08-16T06:05:51.344Z,26.30
2022-08-16T06:08:55.216Z,26.51
2022-08-16T06:12:01.859Z,26.67
2022-08-16T06:15:11.171Z,26.92
2022-08-16T06:18:19.846Z,27.08
2022-08-16T06:21:31.172Z,27.15
2022-08-16T06:24:55.067Z,27.25
2022-08-16T06:28:02.149Z,27.41
2022-08-16T06:31:15.419Z,27.55
2022-08-16T06:34:53.226Z,27.58
2022-08-16T06:37:54.414Z,27.94
2022-08-16T06:41:01.600Z,27.93
2022-08-16T06:44:07.967Z,28.01
2022-08-16T06:47:25.582Z,27.90
2022-08-16T06:50:50.318Z,28.14
2022-08-16T06:53:55.591Z,28.53
2022-08-16T06:57:00.080Z,28.78
2022-08-16T07:00:24.274Z,28.97
2022-08-16T07:03:55.671Z,29.52
2022-08-16T07:07:05.774Z,29.72
2022-08-16T07:10:11.794Z,30.25
2022-08-16T07:13:43.942Z,30.52
2022-08-16T07:16:45.220Z,30.71
2022-08-16T07:20:30.324Z,30.82
2022-08-16T07:23:37.164Z,31.54
2022-08-16T07:26:48.623Z,31.73
2022-08-16T07:29:56.365Z,32.06
2022-08-16T07:33:02.340Z,32.23
2022-08-16T07:36:09.687Z,32.32
2022-08-16T07:39:19.665Z,31.97
2022-08-16T07:42:28.375Z,32.09
2022-08-16T07:45:38.791Z,32.24
2022-08-16T07:48:51.573Z,32.51
2022-08-16T07:52:00.061Z,32.20
2022-08-16T07:55:10.379Z,32.28
2022-08-16T07:58:18.290Z,32.52
2022-08-16T08:01:40.078Z,32.55
2022-08-16T08:04:47.664Z,32.16
2022-08-16T08:07:53.869Z,32.65
2022-08-16T08:11:09.229Z,32.93
2022-08-16T08:14:29.710Z,32.48
2022-08-16T08:17:42.212Z,32.57
2022-08-16T08:21:12.269Z,32.75
2022-08-16T08:24:18.198Z,32.57
2022-08-16T08:27:24.575Z,32.31
2022-08-16T08:30:51.523Z,32.02
2022-08-16T08:33:56.959Z,31.85
2022-08-16T08:37:07.380Z,31.77
2022-08-16T08:40:15.781Z,31.37
2022-08-16T08:43:23.488Z,31.54
2022-08-16T08:46:35.673Z,31.44
2022-08-16T08:49:46.598Z,31.43
2022-08-16T08:52:57.025Z,31.31
2022-08-16T08:56:23.511Z,31.40
2022-08-16T08:59:31.760Z,31.34
2022-08-16T09:02:35.642Z,31.42
2022-08-16T09:05:40.127Z,31.22
2022-08-16T09:08:50.807Z,31.30
2022-08-16T09:12:06.189Z,31.13
2022-08-16T09:15:21.644Z,31.06
2022-08-16T09:18:35.830Z,30.93
2022-08-16T09:21:42.556Z,30.63
2022-08-16T09:24:53.127Z,30.55
2022-08-16T09:28:02.845Z,30.77
2022-08-16T09:31:17.785Z,30.83
2022-08-16T09:34:21.990Z,30.93
2022-08-16T09:37:29.191Z,30.85
2022-08-16T09:40:42.627Z,30.93
2022-08-16T09:43:59.338Z,31.10
2022-08-16T09:47:10.476Z,31.09
2022-08-16T09:50:22.535Z,31.20
2022-08-16T09:53:27.419Z,31.16
2022-08-16T09:56:36.814Z,31.30
2022-08-16T09:59:42.069Z,31.38
2022-08-16T10:02:56.484Z,31.41
2022-08-16T10:06:00.660Z,31.49
2022-08-16T10:09:08.307Z,31.59
2022-08-16T10:12:31.388Z,31.77
2022-08-16T10:15:38.159Z,31.79
2022-08-16T10:19:01.661Z,31.83
2022-08-16T10:22:12.830Z,31.75
2022-08-16T10:27:20.624Z,31.85
2022-08-16T10:28:42.909Z,31.89
2022-08-16T10:31:53.861Z,32.01
2022-08-16T10:34:59.878Z,32.07
2022-08-16T10:38:06.825Z,32.03
2022-08-16T10:41:15.846Z,31.99
2022-08-16T10:44:21.391Z,31.96
2022-08-16T10:47:26.677Z,31.95
2022-08-16T10:50:34.625Z,31.82
2022-08-16T10:53:40.999Z,31.90
2022-08-16T10:56:55.828Z,32.11
2022-08-16T11:00:06.578Z,32.18
2022-08-16T11:03:44.560Z,32.17
2022-08-16T11:11:00.068Z,32.15
2022-08-16T11:14:11.004Z,32.00
2022-08-16T11:17:13.469Z,31.99
2022-08-16T11:23:58.303Z,32.05
2022-08-16T11:27:23.382Z,32.09
2022-08-16T11:30:39.368Z,32.09
2022-08-16T11:33:53.230Z,32.21
2022-08-16T11:37:01.052Z,32.17
2022-08-16T11:40:09.315Z,32.00
2022-08-16T11:43:16.691Z,32.08
2022-08-16T11:46:43.177Z,31.83
2022-08-16T11:49:46.093Z,32.08
2022-08-16T11:52:50.958Z,32.20
2022-08-16T11:55:55.335Z,32.10
2022-08-16T11:58:59.511Z,32.12
2022-08-16T12:02:31.270Z,32.07
2022-08-16T12:05:32.454Z,32.17
2022-08-16T12:08:36.875Z,32.29
2022-08-16T12:11:41.086Z,32.34
2022-08-16T12:14:47.787Z,32.44
2022-08-16T12:17:51.811Z,32.43
2022-08-16T12:20:58.357Z,32.37
2022-08-16T12:24:05.961Z,32.37
2022-08-16T12:27:09.695Z,32.42
2022-08-16T12:30:21.795Z,32.40
2022-08-16T12:33:32.441Z,32.32
2022-08-16T12:36:48.837Z,32.24
2022-08-16T12:39:56.295Z,32.16
2022-08-16T12:43:02.283Z,32.08
2022-08-16T12:46:07.122Z,32.08
2022-08-16T12:49:11.691Z,31.92
2022-08-16T12:52:32.598Z,32.06
2022-08-16T12:55:42.077Z,32.13
2022-08-16T12:58:51.807Z,32.15
2022-08-16T13:01:59.480Z,32.21
2022-08-16T13:05:04.524Z,32.18
2022-08-16T13:08:20.267Z,32.03
2022-08-16T13:11:31.074Z,32.19
2022-08-16T13:14:39.785Z,32.02
2022-08-16T13:17:45.729Z,32.09
2022-08-16T13:20:54.933Z,31.85
2022-08-16T13:24:01.285Z,32.19
2022-08-16T13:27:11.071Z,32.08
2022-08-16T13:30:41.190Z,32.20
2022-08-16T13:33:43.811Z,31.95
2022-08-16T13:36:49.810Z,32.11
2022-08-16T13:39:59.990Z,32.16
2022-08-16T13:43:04.826Z,31.89
2022-08-16T13:46:10.248Z,31.86
2022-08-16T13:49:15.015Z,31.68
2022-08-16T13:52:19.735Z,31.74
2022-08-16T13:55:26.557Z,31.48
2022-08-16T13:58:36.741Z,31.61
2022-08-16T14:01:43.012Z,31.66
2022-08-16T14:04:59.595Z,31.76
2022-08-16T14:08:09.472Z,31.51
2022-08-16T14:11:17.195Z,31.39
2022-08-16T14:14:28.679Z,31.39
2022-08-16T14:18:16.081Z,31.17
2022-08-16T14:21:06.411Z,31.19
2022-08-16T14:24:22.295Z,31.40
2022-08-16T14:27:35.426Z,31.46
2022-08-16T14:30:45.007Z,31.43
2022-08-16T14:33:49.143Z,31.50
2022-08-16T14:36:53.567Z,31.51
2022-08-16T14:39:58.640Z,31.53
2022-08-16T14:43:07.215Z,31.56
2022-08-16T14:46:11.226Z,31.58
2022-08-16T14:49:17.666Z,31.51
2022-08-16T14:52:44.872Z,31.57
2022-08-16T14:55:50.743Z,31.61
2022-08-16T14:58:56.229Z,31.66
2022-08-16T15:02:02.321Z,31.67
2022-08-16T15:05:10.937Z,31.68
2022-08-16T15:08:36.644Z,31.63
2022-08-16T15:11:44.977Z,31.40
2022-08-16T15:14:53.229Z,31.46
2022-08-16T15:17:57.703Z,31.42
2022-08-16T15:21:02.579Z,31.35
2022-08-16T15:24:07.514Z,31.36
2022-08-16T15:27:21.463Z,31.36
2022-08-16T15:30:59.724Z,31.34
2022-08-16T15:33:58.092Z,31.31
2022-08-16T15:37:02.104Z,31.34
2022-08-16T15:40:26.651Z,31.24
2022-08-16T15:43:39.831Z,31.27
2022-08-16T15:46:56.271Z,31.15
2022-08-16T15:50:01.906Z,31.27
2022-08-16T15:53:12.764Z,31.27
2022-08-16T15:56:18.855Z,31.26
2022-08-16T15:59:26.971Z,31.22
2022-08-16T16:02:33.607Z,31.21
2022-08-16T16:05:38.546Z,31.13
2022-08-16T16:08:43.262Z,31.10
2022-08-16T16:11:55.135Z,31.04
2022-08-16T16:15:01.164Z,31.00
2022-08-16T16:18:10.058Z,30.85
2022-08-16T16:21:20.413Z,30.84
2022-08-16T16:24:30.674Z,30.80
2022-08-16T16:27:38.797Z,30.76
2022-08-16T16:30:45.681Z,30.78
2022-08-16T16:33:55.922Z,30.71
2022-08-16T16:36:59.949Z,30.63
2022-08-16T16:40:03.982Z,30.63
2022-08-16T16:43:09.365Z,30.57
2022-08-16T16:46:40.849Z,30.50
2022-08-16T16:49:45.628Z,30.51
2022-08-16T16:52:53.639Z,30.47
2022-08-16T16:55:57.604Z,30.41
2022-08-16T16:59:09.423Z,30.37
2022-08-16T17:02:41.203Z,30.34
2022-08-16T17:05:40.736Z,30.25
2022-08-16T17:08:46.423Z,30.03
2022-08-16T17:11:56.226Z,29.93
2022-08-16T17:15:00.730Z,29.74
2022-08-16T17:19:15.716Z,29.65
2022-08-16T17:21:36.936Z,29.56
2022-08-16T17:24:45.369Z,29.47
2022-08-16T17:27:51.687Z,29.31
2022-08-16T17:30:59.040Z,29.17
2022-08-16T17:34:30.193Z,29.10
2022-08-16T17:37:50.918Z,28.94
2022-08-16T17:41:00.312Z,28.59
2022-08-16T17:44:05.583Z,28.57
2022-08-16T17:47:09.446Z,28.29
2022-08-16T17:50:13.328Z,28.17
2022-08-16T17:53:22.004Z,28.04
2022-08-16T17:56:30.452Z,28.16
2022-08-16T17:59:41.072Z,28.20
2022-08-16T18:02:45.125Z,28.14
2022-08-16T18:05:49.581Z,28.03
2022-08-16T18:09:04.003Z,27.77
2022-08-16T18:16:25.550Z,27.48
2022-08-16T18:25:12.038Z,27.37
2022-08-16T18:28:16.554Z,27.26
2022-08-16T18:31:20.410Z,27.11
2022-08-16T18:34:24.050Z,27.14
2022-08-16T18:37:27.936Z,27.15
2022-08-16T18:40:33.858Z,27.06
2022-08-16T18:44:23.787Z,26.70
2022-08-16T18:47:01.528Z,26.39
2022-08-16T18:50:06.288Z,26.38
2022-08-16T18:53:12.391Z,26.27
2022-08-16T18:56:17.834Z,26.09
2022-08-16T18:59:22.888Z,26.01
2022-08-16T19:02:56.217Z,25.90
2022-08-16T19:05:53.297Z,25.78
2022-08-16T19:08:57.181Z,26.01
2022-08-16T19:12:06.749Z,25.71
2022-08-16T19:15:14.096Z,25.90
2022-08-16T19:18:18.377Z,26.01
2022-08-16T19:21:22.256Z,25.93
2022-08-16T19:24:29.089Z,25.93
2022-08-16T19:27:35.146Z,26.01
2022-08-16T19:30:40.671Z,25.97
2022-08-16T19:33:54.457Z,25.96
2022-08-16T19:37:02.541Z,25.94
2022-08-16T19:40:36.017Z,25.82
2022-08-16T19:43:35.778Z,25.44
2022-08-16T19:46:41.766Z,25.58
2022-08-16T19:49:45.522Z,25.50
2022-08-16T19:52:53.709Z,25.48
2022-08-16T19:55:58.039Z,25.27
2022-08-16T19:59:21.442Z,25.01
2022-08-16T20:02:35.664Z,24.85
2022-08-16T20:06:06.190Z,25.06
2022-08-16T20:09:15.738Z,24.98
2022-08-16T20:12:22.787Z,24.90
2022-08-16T20:15:30.711Z,24.79
2022-08-16T20:18:34.815Z,24.91
2022-08-16T20:21:38.477Z,24.48
2022-08-16T20:24:42.305Z,24.52
2022-08-16T20:27:46.084Z,24.64
2022-08-16T20:30:52.651Z,24.58
2022-08-16T20:33:57.880Z,24.51
2022-08-16T20:37:02.892Z,24.18
2022-08-16T20:40:28.265Z,24.53
2022-08-16T20:43:34.819Z,24.19
2022-08-16T20:46:40.311Z,24.50
2022-08-16T20:49:44.710Z,24.61
2022-08-16T20:52:53.259Z,24.34
2022-08-16T20:55:58.829Z,24.30
2022-08-16T20:59:03.666Z,24.37
2022-08-16T21:02:10.894Z,24.15
2022-08-16T21:05:22.718Z,24.30
2022-08-16T21:08:51.759Z,23.85
2022-08-16T21:11:54.235Z,24.27
2022-08-16T21:14:58.270Z,24.05
2022-08-16T21:18:03.569Z,24.25
2022-08-16T21:21:07.530Z,24.29
2022-08-16T21:24:11.234Z,24.14
2022-08-16T21:27:17.380Z,24.13
2022-08-16T21:30:25.081Z,24.03
2022-08-16T21:33:36.430Z,23.79
2022-08-16T21:36:40.221Z,23.83
2022-08-16T21:39:44.665Z,23.54
2022-08-16T21:42:48.529Z,23.48
2022-08-16T21:45:55.474Z,23.55
2022-08-16T21:49:01.143Z,23.74
2022-08-16T21:52:05.861Z,23.83
2022-08-16T21:55:10.584Z,23.98
2022-08-16T21:58:14.918Z,24.09
2022-08-16T22:01:18.621Z,23.96
2022-08-16T22:04:36.851Z,23.99
2022-08-16T22:07:42.371Z,23.69
2022-08-16T22:11:07.091Z,23.84
2022-08-16T22:14:12.566Z,23.72
2022-08-16T22:17:16.880Z,23.32
2022-08-16T22:20:24.092Z,23.65
2022-08-16T22:23:28.095Z,23.67
2022-08-16T22:26:34.694Z,23.56
2022-08-16T22:29:42.163Z,23.66
2022-08-16T22:32:46.587Z,23.66
2022-08-16T22:35:55.742Z,23.74
2022-08-16T22:39:01.450Z,23.82
2022-08-16T22:42:08.505Z,23.61
2022-08-16T22:45:13.567Z,23.69
2022-08-16T22:48:18.313Z,23.53
2022-08-16T22:51:25.509Z,23.68
2022-08-16T22:54:45.903Z,23.67
2022-08-16T22:57:53.023Z,23.72
2022-08-16T23:00:59.594Z,23.78
2022-08-16T23:04:04.070Z,23.56
2022-08-16T23:07:09.522Z,23.44
2022-08-16T23:10:13.193Z,23.55
2022-08-16T23:13:18.259Z,23.62
2022-08-16T23:16:23.020Z,23.74
2022-08-16T23:19:29.601Z,23.74
2022-08-16T23:23:19.014Z,23.34
2022-08-16T23:26:45.298Z,23.50
2022-08-16T23:29:33.890Z,23.46
2022-08-16T23:32:45.419Z,23.35
2022-08-16T23:35:52.210Z,23.26
2022-08-16T23:38:57.729Z,22.99
2022-08-16T23:42:02.027Z,23.01
2022-08-16T23:45:07.420Z,23.01
2022-08-16T23:48:12.425Z,22.76
2022-08-16T23:51:17.190Z,23.13
2022-08-16T23:54:22.614Z,23.10
2022-08-16T23:57:27.174Z,23.15
